Terminal Aerodrome Forecast
Issued by NWS La Crosse, WI

Home | Current Version | Previous Version | Text Only | Print | Product List | Glossary On
Versions: 1 2 3 4 5 6 7 8 9 10 11 12 13 14 15 16 17 18 19
000
FTUS43 KARX 211416 AAB
TAFRST
TAF AMD
KRST 211416Z 2114/2212 22010KT P6SM -SHRA SCT030 OVC080
     FM211500 30015KT P6SM SCT030 BKN080
     FM211700 32019G28KT P6SM SKC
     FM220100 32013KT P6SM SKC
     FM220500 33008KT P6SM SKC=

USA.gov is the U.S. government's official web portal to all federal, state and local government web resources and services.